createdAt,value
2024-03-09T00:01:38.472Z,-3.14
2024-03-09T00:04:05.812Z,-3.58
2024-03-09T00:06:33.889Z,-2.97
2024-03-09T00:09:01.023Z,-3.18
2024-03-09T00:11:28.284Z,-3.00
2024-03-09T00:13:56.076Z,-3.50
2024-03-09T00:16:22.797Z,-3.39
2024-03-09T00:18:49.595Z,-2.98
2024-03-09T00:21:16.283Z,-3.12
2024-03-09T00:23:43.579Z,-3.04
2024-03-09T00:26:11.400Z,-3.42
2024-03-09T00:28:42.200Z,-3.26
2024-03-09T00:31:09.453Z,-3.16
2024-03-09T00:33:39.403Z,-3.33
2024-03-09T00:36:07.750Z,-2.77
2024-03-09T00:38:35.630Z,-3.23
2024-03-09T00:41:03.029Z,-3.08
2024-03-09T00:43:29.720Z,-3.30
2024-03-09T00:45:56.452Z,-3.30
2024-03-09T00:48:23.642Z,-3.16
2024-03-09T00:50:50.396Z,-3.26
2024-03-09T00:53:18.277Z,-3.30
2024-03-09T00:55:45.722Z,-3.22
2024-03-09T00:58:14.242Z,-3.35
2024-03-09T01:00:41.180Z,-3.31
2024-03-09T01:03:07.815Z,-3.23
2024-03-09T01:05:34.510Z,-3.60
2024-03-09T01:08:01.962Z,-3.82
2024-03-09T01:10:28.681Z,-3.47
2024-03-09T01:12:56.769Z,-3.79
2024-03-09T01:15:23.573Z,-3.57
2024-03-09T01:17:50.473Z,-4.14
2024-03-09T01:20:18.366Z,-3.44
2024-03-09T01:22:46.398Z,-3.43
2024-03-09T01:25:14.019Z,-3.51
2024-03-09T01:27:41.147Z,-3.52
2024-03-09T01:30:10.885Z,-3.41
2024-03-09T01:32:41.648Z,-3.84
2024-03-09T01:35:10.482Z,-3.45
2024-03-09T01:37:37.584Z,-3.43
2024-03-09T01:40:05.835Z,-3.59
2024-03-09T01:42:32.479Z,-3.30
2024-03-09T01:44:59.227Z,-3.76
2024-03-09T01:47:27.418Z,-3.34
2024-03-09T01:49:55.166Z,-3.31
2024-03-09T01:52:25.054Z,-3.53
2024-03-09T01:54:55.180Z,-3.49
2024-03-09T01:57:22.119Z,-3.29
2024-03-09T01:59:55.906Z,-3.25
2024-03-09T02:02:26.289Z,-3.40
2024-03-09T02:04:53.595Z,-3.79
2024-03-09T02:07:20.395Z,-3.50
2024-03-09T02:09:49.511Z,-3.62
2024-03-09T02:12:18.574Z,-3.38
2024-03-09T02:14:46.396Z,-3.78
2024-03-09T02:17:14.011Z,-3.84
2024-03-09T02:19:41.835Z,-3.56
2024-03-09T02:22:14.272Z,-3.91
2024-03-09T02:24:42.865Z,-3.66
2024-03-09T02:27:10.729Z,-3.73
2024-03-09T02:29:38.494Z,-4.32
2024-03-09T02:32:05.762Z,-3.70
2024-03-09T02:34:33.261Z,-3.82
2024-03-09T02:37:00.305Z,-3.60
2024-03-09T02:39:29.627Z,-3.73
2024-03-09T02:41:59.631Z,-3.85
2024-03-09T02:44:29.704Z,-3.92
2024-03-09T02:46:56.841Z,-4.20
2024-03-09T02:49:25.779Z,-4.17
2024-03-09T02:51:54.755Z,-4.13
2024-03-09T02:54:21.786Z,-3.98
2024-03-09T02:56:50.728Z,-4.09
2024-03-09T02:59:17.675Z,-4.10
2024-03-09T03:01:45.173Z,-3.73
2024-03-09T03:04:13.217Z,-4.04
2024-03-09T03:06:40.106Z,-4.26
2024-03-09T03:09:12.847Z,-3.93
2024-03-09T03:11:42.487Z,-4.30
2024-03-09T03:14:10.852Z,-3.79
2024-03-09T03:16:38.020Z,-3.81
2024-03-09T03:19:11.063Z,-4.57
2024-03-09T03:21:42.311Z,-3.85
2024-03-09T03:24:10.579Z,-4.12
2024-03-09T03:26:38.043Z,-3.88
2024-03-09T03:29:05.059Z,-4.24
2024-03-09T03:31:31.984Z,-4.30
2024-03-09T03:33:59.031Z,-4.21
2024-03-09T03:36:26.142Z,-4.19
2024-03-09T03:38:52.907Z,-4.32
2024-03-09T03:41:23.749Z,-3.94
2024-03-09T03:43:51.359Z,-3.96
2024-03-09T03:46:18.422Z,-4.30
2024-03-09T03:48:48.437Z,-4.37
2024-03-09T03:51:16.966Z,-4.35
2024-03-09T03:53:45.736Z,-4.56
2024-03-09T03:56:16.031Z,-4.00
2024-03-09T03:58:45.834Z,-3.83
2024-03-09T04:01:12.602Z,-4.42
2024-03-09T04:03:39.688Z,-4.36
2024-03-09T04:06:07.584Z,-4.68
2024-03-09T04:08:34.717Z,-4.41
2024-03-09T04:11:03.493Z,-4.46
2024-03-09T04:13:30.245Z,-4.28
2024-03-09T04:15:57.305Z,-4.69
2024-03-09T04:18:24.418Z,-4.56
2024-03-09T04:20:51.353Z,-4.21
2024-03-09T04:23:18.725Z,-4.71
2024-03-09T04:25:57.522Z,-4.17
2024-03-09T04:28:29.214Z,-4.66
2024-03-09T04:30:59.907Z,-4.31
2024-03-09T04:33:27.608Z,-4.40
2024-03-09T04:35:54.609Z,-4.33
2024-03-09T04:38:21.779Z,-4.64
2024-03-09T04:40:51.059Z,-4.17
2024-03-09T04:43:19.064Z,-4.47
2024-03-09T04:45:47.052Z,-4.16
2024-03-09T04:48:15.473Z,-4.19
2024-03-09T04:50:48.539Z,-4.19
2024-03-09T04:53:17.087Z,-4.20
2024-03-09T04:55:52.957Z,-4.48
2024-03-09T04:58:20.773Z,-5.60
2024-03-09T05:00:47.811Z,-4.85
2024-03-09T05:03:15.898Z,-4.23
2024-03-09T05:05:44.525Z,-4.39
2024-03-09T05:08:12.056Z,-4.22
2024-03-09T05:10:39.011Z,-4.45
2024-03-09T05:13:08.084Z,-4.59
2024-03-09T05:15:35.608Z,-4.43
2024-03-09T05:18:04.950Z,-4.44
2024-03-09T05:20:31.851Z,-4.28
2024-03-09T05:23:00.424Z,-4.23
2024-03-09T05:25:28.043Z,-4.47
2024-03-09T05:27:55.747Z,-4.70
2024-03-09T05:30:26.896Z,-3.93
2024-03-09T05:32:58.946Z,-3.90
2024-03-09T05:35:30.861Z,-4.07
2024-03-09T05:38:01.936Z,-3.78
2024-03-09T05:40:31.200Z,-4.55
2024-03-09T05:43:01.955Z,-3.63
2024-03-09T05:45:29.291Z,-3.55
2024-03-09T05:47:57.582Z,-3.91
2024-03-09T05:50:32.331Z,-3.62
2024-03-09T05:53:03.346Z,-3.08
2024-03-09T05:55:30.516Z,-2.21
2024-03-09T05:57:58.455Z,-1.67
2024-03-09T06:00:31.359Z,-0.56
2024-03-09T06:03:09.183Z,0.26
2024-03-09T06:05:36.345Z,0.88
2024-03-09T06:08:04.213Z,2.05
2024-03-09T06:10:31.459Z,3.11
2024-03-09T06:12:58.225Z,4.15
2024-03-09T06:15:26.536Z,4.88
2024-03-09T06:17:57.377Z,5.86
2024-03-09T06:20:33.281Z,6.60
2024-03-09T06:23:00.077Z,7.66
2024-03-09T06:25:27.716Z,8.47
2024-03-09T06:28:03.798Z,9.10
2024-03-09T06:30:32.505Z,9.83
2024-03-09T06:33:01.157Z,10.88
2024-03-09T06:35:29.780Z,11.79
2024-03-09T06:38:02.214Z,12.63
2024-03-09T06:40:33.911Z,13.48
2024-03-09T06:43:06.660Z,14.12
2024-03-09T06:45:35.266Z,14.92
2024-03-09T06:48:02.187Z,15.58
2024-03-09T06:50:30.454Z,16.13
2024-03-09T06:52:57.428Z,16.66
2024-03-09T06:55:27.784Z,17.26
2024-03-09T06:57:55.508Z,17.84
2024-03-09T07:00:23.313Z,18.21
2024-03-09T07:02:55.000Z,18.96
2024-03-09T07:05:22.240Z,19.57
2024-03-09T07:07:49.713Z,20.04
2024-03-09T07:10:16.470Z,20.58
2024-03-09T07:12:43.352Z,20.99
2024-03-09T07:15:18.031Z,21.40
2024-03-09T07:17:46.299Z,22.19
2024-03-09T07:20:14.866Z,22.30
2024-03-09T07:22:43.254Z,22.96
2024-03-09T07:25:17.086Z,23.30
2024-03-09T07:27:44.798Z,23.90
2024-03-09T07:30:15.625Z,24.28
2024-03-09T07:32:49.798Z,24.76
2024-03-09T07:35:20.759Z,25.12
2024-03-09T07:37:56.668Z,25.75
2024-03-09T07:40:27.588Z,26.25
2024-03-09T07:42:55.029Z,26.54
2024-03-09T07:45:27.909Z,26.84
2024-03-09T07:47:55.380Z,27.18
2024-03-09T07:50:24.387Z,27.70
2024-03-09T07:52:56.878Z,27.96
2024-03-09T07:55:27.058Z,28.09
2024-03-09T07:58:13.253Z,28.67
2024-03-09T08:00:50.043Z,28.88
2024-03-09T08:03:18.328Z,29.21
2024-03-09T08:05:45.221Z,29.38
2024-03-09T08:08:13.894Z,29.58
2024-03-09T08:10:46.783Z,29.98
2024-03-09T08:13:14.861Z,30.33
2024-03-09T08:15:41.871Z,30.50
2024-03-09T08:18:09.077Z,30.68
2024-03-09T08:20:36.279Z,30.92
2024-03-09T08:23:03.102Z,31.05
2024-03-09T08:25:29.988Z,31.08
2024-03-09T08:27:56.887Z,31.42
2024-03-09T08:30:23.700Z,31.48
2024-03-09T08:33:00.773Z,31.51
2024-03-09T08:35:34.243Z,31.47
2024-03-09T08:38:01.206Z,31.55
2024-03-09T08:40:28.286Z,31.68
2024-03-09T08:42:56.087Z,31.96
2024-03-09T08:45:25.039Z,32.05
2024-03-09T08:47:53.422Z,32.07
2024-03-09T08:50:22.882Z,32.09
2024-03-09T08:52:50.984Z,32.14
2024-03-09T08:55:19.952Z,32.03
2024-03-09T08:57:53.063Z,32.01
2024-03-09T09:00:26.704Z,32.17
2024-03-09T09:02:58.372Z,31.89
2024-03-09T09:05:29.638Z,31.91
2024-03-09T09:08:00.383Z,31.82
2024-03-09T09:10:27.521Z,31.75
2024-03-09T09:12:58.640Z,31.63
2024-03-09T09:15:26.558Z,31.41
2024-03-09T09:17:57.343Z,31.61
2024-03-09T09:20:25.582Z,31.52
2024-03-09T09:22:55.552Z,31.18
2024-03-09T09:25:30.842Z,31.52
2024-03-09T09:28:01.090Z,31.60
2024-03-09T09:30:27.944Z,31.76
2024-03-09T09:32:54.725Z,31.90
2024-03-09T09:35:22.120Z,31.64
2024-03-09T09:37:49.146Z,32.00
2024-03-09T09:40:16.978Z,32.28
2024-03-09T09:42:45.002Z,32.39
2024-03-09T09:45:22.951Z,32.62
2024-03-09T09:47:50.103Z,32.65
2024-03-09T09:50:20.541Z,32.90
2024-03-09T09:52:50.337Z,32.86
2024-03-09T09:55:20.777Z,33.04
2024-03-09T09:57:47.758Z,32.90
2024-03-09T10:00:15.756Z,32.93
2024-03-09T10:02:43.104Z,32.84
2024-03-09T10:05:14.400Z,32.97
2024-03-09T10:08:06.196Z,32.97
2024-03-09T10:10:36.846Z,32.86
2024-03-09T10:13:08.174Z,33.01
2024-03-09T10:15:38.085Z,32.84
2024-03-09T10:18:07.000Z,33.02
2024-03-09T10:20:36.226Z,32.90
2024-03-09T10:23:10.292Z,32.70
2024-03-09T10:25:37.599Z,32.49
2024-03-09T10:28:12.200Z,32.60
2024-03-09T10:30:39.964Z,32.42
2024-03-09T10:33:15.833Z,32.40
2024-03-09T10:35:45.744Z,32.36
2024-03-09T10:38:14.850Z,32.41
2024-03-09T10:40:43.076Z,32.14
2024-03-09T10:43:14.759Z,32.25
2024-03-09T10:45:42.650Z,31.81
2024-03-09T10:48:11.397Z,32.02
2024-03-09T10:50:53.086Z,31.77
2024-03-09T10:53:28.728Z,31.82
2024-03-09T10:56:16.622Z,31.67
2024-03-09T10:58:45.908Z,31.12
2024-03-09T11:01:16.993Z,31.38
2024-03-09T11:03:50.453Z,31.04
2024-03-09T11:06:22.662Z,30.88
2024-03-09T11:08:58.135Z,30.75
2024-03-09T11:11:28.089Z,30.67
2024-03-09T11:13:58.196Z,30.41
2024-03-09T11:16:28.263Z,30.22
2024-03-09T11:18:58.653Z,30.12
2024-03-09T11:21:35.767Z,30.08
2024-03-09T11:24:12.892Z,29.88
2024-03-09T11:26:53.642Z,29.54
2024-03-09T11:29:24.586Z,29.46
2024-03-09T11:32:13.358Z,29.53
2024-03-09T11:34:40.516Z,28.41
2024-03-09T11:37:10.128Z,29.00
2024-03-09T11:39:38.024Z,28.76
2024-03-09T11:42:10.357Z,28.59
2024-03-09T11:44:41.265Z,28.24
2024-03-09T11:47:08.743Z,27.89
2024-03-09T11:49:37.180Z,27.61
2024-03-09T11:52:15.626Z,27.36
2024-03-09T11:54:45.272Z,27.21
2024-03-09T11:57:12.060Z,26.92
2024-03-09T11:59:38.690Z,26.74
2024-03-09T12:02:08.790Z,26.62
2024-03-09T12:04:36.221Z,25.86
2024-03-09T12:07:07.624Z,26.18
2024-03-09T12:09:34.865Z,25.64
2024-03-09T12:12:13.950Z,25.43
2024-03-09T12:14:42.850Z,25.33
2024-03-09T12:17:11.605Z,24.85
2024-03-09T12:19:42.126Z,24.63
2024-03-09T12:22:10.682Z,24.24
2024-03-09T12:24:37.646Z,24.09
2024-03-09T12:27:04.643Z,23.73
2024-03-09T12:29:34.364Z,23.38
2024-03-09T12:32:02.806Z,23.03
2024-03-09T12:34:30.249Z,22.44
2024-03-09T12:36:59.276Z,22.20
2024-03-09T12:39:29.031Z,21.37
2024-03-09T12:41:57.535Z,21.40
2024-03-09T12:44:24.488Z,20.74
2024-03-09T12:46:51.519Z,20.69
2024-03-09T12:49:19.752Z,19.94
2024-03-09T12:51:48.010Z,19.90
2024-03-09T12:54:14.967Z,19.72
2024-03-09T12:56:43.264Z,19.42
2024-03-09T12:59:22.381Z,19.27
2024-03-09T13:01:51.280Z,18.66
2024-03-09T13:04:19.501Z,18.13
2024-03-09T13:06:46.239Z,18.20
2024-03-09T13:09:16.729Z,18.12
2024-03-09T13:11:44.830Z,17.47
2024-03-09T13:14:11.910Z,17.35
2024-03-09T13:16:42.188Z,16.85
2024-03-09T13:19:11.709Z,17.00
2024-03-09T13:21:39.181Z,17.41
2024-03-09T13:24:10.142Z,16.61
2024-03-09T13:26:38.345Z,16.48
2024-03-09T13:29:05.332Z,16.26
2024-03-09T13:31:34.419Z,15.96
2024-03-09T13:34:07.153Z,15.89
2024-03-09T13:36:33.913Z,15.67
2024-03-09T13:39:01.813Z,15.49
2024-03-09T13:41:29.158Z,15.16
2024-03-09T13:43:58.106Z,14.94
2024-03-09T13:46:25.449Z,14.83
2024-03-09T13:48:52.263Z,14.31
2024-03-09T13:51:19.123Z,14.64
2024-03-09T13:53:46.786Z,14.34
2024-03-09T13:56:21.109Z,14.43
2024-03-09T13:58:49.258Z,13.83
2024-03-09T14:01:21.193Z,14.16
2024-03-09T14:03:48.981Z,13.55
2024-03-09T14:06:17.129Z,13.70
2024-03-09T14:08:44.315Z,13.42
2024-03-09T14:11:12.765Z,13.53
2024-03-09T14:13:39.856Z,13.42
2024-03-09T14:16:09.659Z,12.98
2024-03-09T14:18:37.873Z,13.13
2024-03-09T14:21:12.557Z,12.74
2024-03-09T14:23:40.037Z,12.59
2024-03-09T14:26:13.182Z,12.30
2024-03-09T14:28:40.850Z,12.21
2024-03-09T14:31:09.989Z,11.81
2024-03-09T14:33:37.290Z,11.53
2024-03-09T14:36:08.089Z,11.36
2024-03-09T14:38:39.560Z,10.59
2024-03-09T14:41:15.275Z,11.79
2024-03-09T14:43:43.361Z,11.42
2024-03-09T14:46:12.869Z,11.14
2024-03-09T14:48:40.790Z,11.17
2024-03-09T14:51:12.338Z,10.78
2024-03-09T14:53:40.746Z,10.71
2024-03-09T14:56:11.424Z,10.23
2024-03-09T14:58:42.390Z,10.40
2024-03-09T15:01:14.038Z,10.49
2024-03-09T15:03:41.466Z,10.30
2024-03-09T15:06:11.838Z,9.69
2024-03-09T15:08:40.609Z,10.19
2024-03-09T15:11:16.115Z,9.52
2024-03-09T15:13:53.365Z,9.93
2024-03-09T15:16:25.858Z,9.72
2024-03-09T15:18:55.432Z,9.59
2024-03-09T15:21:24.287Z,9.14
2024-03-09T15:23:53.073Z,9.51
2024-03-09T15:26:29.938Z,8.14
2024-03-09T15:28:58.190Z,9.24
2024-03-09T15:31:25.385Z,9.39
2024-03-09T15:33:54.508Z,9.11
2024-03-09T15:36:21.857Z,9.21
2024-03-09T15:38:49.448Z,8.98
2024-03-09T15:41:17.152Z,8.77
2024-03-09T15:43:45.073Z,8.84
2024-03-09T15:46:12.898Z,8.66
2024-03-09T15:48:39.655Z,8.67
2024-03-09T15:51:06.682Z,8.54
2024-03-09T15:53:38.997Z,8.52
2024-03-09T15:56:08.677Z,8.27
2024-03-09T15:58:41.836Z,8.26
2024-03-09T16:01:10.233Z,8.18
2024-03-09T16:03:37.844Z,8.16
2024-03-09T16:06:05.288Z,7.83
2024-03-09T16:08:32.198Z,7.81
2024-03-09T16:10:59.314Z,7.99
2024-03-09T16:13:26.439Z,7.75
2024-03-09T16:15:53.363Z,7.66
2024-03-09T16:18:20.118Z,7.47
2024-03-09T16:20:49.038Z,7.49
2024-03-09T16:23:20.198Z,7.39
2024-03-09T16:25:50.146Z,7.46
2024-03-09T16:28:18.316Z,6.96
2024-03-09T16:30:46.132Z,7.18
2024-03-09T16:33:14.500Z,7.01
2024-03-09T16:35:43.457Z,7.15
2024-03-09T16:38:10.273Z,6.79
2024-03-09T16:40:39.946Z,6.70
2024-03-09T16:43:09.191Z,6.44
2024-03-09T16:45:37.272Z,6.57
2024-03-09T16:48:07.725Z,6.53
2024-03-09T16:50:35.162Z,6.66
2024-03-09T16:53:04.116Z,6.57
2024-03-09T16:55:38.371Z,6.50
2024-03-09T16:58:05.795Z,6.12
2024-03-09T17:00:37.476Z,6.30
2024-03-09T17:03:12.015Z,6.18
2024-03-09T17:05:40.576Z,6.15
2024-03-09T17:08:09.539Z,5.93
2024-03-09T17:10:38.237Z,5.56
2024-03-09T17:13:06.269Z,5.04
2024-03-09T17:15:35.645Z,5.29
2024-03-09T17:18:02.670Z,5.49
2024-03-09T17:20:31.246Z,5.68
2024-03-09T17:23:03.707Z,5.48
2024-03-09T17:25:35.480Z,5.49
2024-03-09T17:28:07.774Z,5.31
2024-03-09T17:30:36.722Z,5.25
2024-03-09T17:33:07.876Z,4.91
2024-03-09T17:35:36.240Z,5.25
2024-03-09T17:38:03.988Z,5.18
2024-03-09T17:40:32.320Z,4.71
2024-03-09T17:42:59.753Z,4.96
2024-03-09T17:45:29.882Z,4.98
2024-03-09T17:47:57.281Z,4.62
2024-03-09T17:50:28.309Z,4.54
2024-03-09T17:53:00.040Z,4.46
2024-03-09T17:55:30.692Z,4.40
2024-03-09T17:58:08.930Z,4.40
2024-03-09T18:00:37.213Z,4.05
2024-03-09T18:03:04.765Z,4.52
2024-03-09T18:05:35.620Z,4.40
2024-03-09T18:08:10.967Z,4.26
2024-03-09T18:10:43.394Z,3.94
2024-03-09T18:13:12.409Z,4.29
2024-03-09T18:15:41.152Z,4.01
2024-03-09T18:18:12.192Z,4.00
2024-03-09T18:20:42.515Z,3.93
2024-03-09T18:23:10.379Z,4.08
2024-03-09T18:25:37.151Z,3.71
2024-03-09T18:28:04.420Z,3.85
2024-03-09T18:30:32.124Z,3.62
2024-03-09T18:32:59.304Z,3.76
2024-03-09T18:35:26.410Z,3.64
2024-03-09T18:38:01.028Z,3.54
2024-03-09T18:40:29.458Z,3.67
2024-03-09T18:42:58.205Z,3.76
2024-03-09T18:45:25.318Z,3.19
2024-03-09T18:47:55.589Z,3.49
2024-03-09T18:50:26.282Z,3.40
2024-03-09T18:52:54.956Z,3.62
2024-03-09T18:55:21.801Z,3.27
2024-03-09T18:57:48.932Z,3.29
2024-03-09T19:00:19.374Z,3.38
2024-03-09T19:02:48.304Z,3.19
2024-03-09T19:05:19.456Z,3.32
2024-03-09T19:07:47.441Z,3.27
2024-03-09T19:10:14.766Z,3.39
2024-03-09T19:12:41.623Z,3.07
2024-03-09T19:15:14.408Z,2.90
2024-03-09T19:17:52.182Z,3.29
2024-03-09T19:20:28.166Z,2.72
2024-03-09T19:23:01.080Z,3.04
2024-03-09T19:25:28.267Z,3.03
2024-03-09T19:27:57.209Z,3.00
2024-03-09T19:30:27.495Z,2.98
2024-03-09T19:32:57.482Z,2.51
2024-03-09T19:35:27.000Z,2.43
2024-03-09T19:37:59.184Z,2.19
2024-03-09T19:40:27.868Z,2.18
2024-03-09T19:42:55.677Z,2.72
2024-03-09T19:45:24.928Z,2.66
2024-03-09T19:47:52.904Z,2.85
2024-03-09T19:50:23.317Z,2.56
2024-03-09T19:52:51.344Z,2.87
2024-03-09T19:55:21.041Z,2.82
2024-03-09T19:57:49.332Z,2.79
2024-03-09T20:00:24.888Z,2.78
2024-03-09T20:02:53.545Z,2.75
2024-03-09T20:05:24.801Z,2.71
2024-03-09T20:08:16.806Z,2.82
2024-03-09T20:10:44.454Z,2.43
2024-03-09T20:13:11.780Z,2.41
2024-03-09T20:15:38.751Z,2.44
2024-03-09T20:18:06.012Z,2.29
2024-03-09T20:20:37.438Z,2.52
2024-03-09T20:23:06.437Z,2.07
2024-03-09T20:25:33.506Z,2.13
2024-03-09T20:28:01.177Z,2.14
2024-03-09T20:30:29.197Z,2.43
2024-03-09T20:32:56.067Z,2.18
2024-03-09T20:35:23.012Z,2.13
2024-03-09T20:37:50.049Z,1.92
2024-03-09T20:40:18.118Z,2.29
2024-03-09T20:42:47.305Z,2.26
2024-03-09T20:45:16.297Z,2.22
2024-03-09T20:47:43.628Z,2.18
2024-03-09T20:50:17.377Z,2.08
2024-03-09T20:52:48.973Z,2.01
2024-03-09T20:55:15.809Z,1.92
2024-03-09T20:57:42.697Z,1.91
2024-03-09T21:00:19.287Z,1.66
2024-03-09T21:02:46.612Z,2.00
2024-03-09T21:05:13.885Z,1.03
2024-03-09T21:07:42.475Z,1.83
2024-03-09T21:10:10.590Z,1.91
2024-03-09T21:12:37.938Z,0.80
2024-03-09T21:15:05.710Z,1.50
2024-03-09T21:17:35.667Z,1.55
2024-03-09T21:20:05.751Z,1.42
2024-03-09T21:22:32.733Z,1.23
2024-03-09T21:24:59.605Z,1.40
2024-03-09T21:27:26.427Z,1.65
2024-03-09T21:29:54.312Z,1.53
2024-03-09T21:32:20.992Z,1.05
2024-03-09T21:34:47.819Z,1.40
2024-03-09T21:37:14.588Z,1.29
2024-03-09T21:39:41.344Z,1.28
2024-03-09T21:42:15.433Z,1.18
2024-03-09T21:44:42.468Z,1.17
2024-03-09T21:47:10.285Z,1.06
2024-03-09T21:49:37.225Z,1.17
2024-03-09T21:52:04.407Z,1.44
2024-03-09T21:54:31.282Z,0.89
2024-03-09T21:56:57.906Z,1.14
2024-03-09T21:59:26.570Z,1.19
2024-03-09T22:01:53.497Z,0.85
2024-03-09T22:04:20.354Z,1.21
2024-03-09T22:06:47.489Z,1.06
2024-03-09T22:09:14.560Z,0.74
2024-03-09T22:11:41.359Z,0.89
2024-03-09T22:14:08.237Z,1.01
2024-03-09T22:16:34.975Z,1.23
2024-03-09T22:19:02.329Z,1.05
2024-03-09T22:21:29.082Z,0.87
2024-03-09T22:23:55.793Z,0.93
2024-03-09T22:26:22.741Z,0.87
2024-03-09T22:28:51.338Z,0.22
2024-03-09T22:31:18.097Z,0.88
2024-03-09T22:33:44.949Z,0.58
2024-03-09T22:36:11.708Z,0.85
2024-03-09T22:38:38.713Z,0.73
2024-03-09T22:41:05.557Z,0.80
2024-03-09T22:43:32.281Z,0.88
2024-03-09T22:45:58.961Z,0.66
2024-03-09T22:48:31.501Z,0.70
2024-03-09T22:50:59.055Z,0.82
2024-03-09T22:53:26.107Z,0.65
2024-03-09T22:55:53.812Z,0.75
2024-03-09T22:58:20.551Z,0.44
2024-03-09T23:01:06.833Z,0.93
2024-03-09T23:03:33.856Z,0.21
2024-03-09T23:06:00.662Z,0.88
2024-03-09T23:08:28.798Z,-0.06
2024-03-09T23:10:56.080Z,0.86
2024-03-09T23:13:23.272Z,0.61
2024-03-09T23:15:50.099Z,0.51
2024-03-09T23:18:19.016Z,0.39
2024-03-09T23:20:46.052Z,-0.08
2024-03-09T23:23:13.528Z,-0.26
2024-03-09T23:25:40.373Z,-0.23
2024-03-09T23:28:10.419Z,-0.80
2024-03-09T23:30:38.026Z,0.73
2024-03-09T23:33:06.086Z,0.55
2024-03-09T23:35:33.320Z,0.58
2024-03-09T23:38:00.049Z,0.42
2024-03-09T23:40:26.974Z,0.78
2024-03-09T23:42:56.214Z,0.63
2024-03-09T23:45:23.419Z,0.52
2024-03-09T23:47:51.549Z,0.76
2024-03-09T23:50:21.265Z,0.53
2024-03-09T23:52:48.967Z,-0.08
2024-03-09T23:55:16.243Z,0.32
2024-03-09T23:57:43.178Z,0.47
